sensor_id;sensor_type;location;lat;lon;timestamp;pressure;altitude;pressure_sealevel;temperature;humidity
75646;BME280;64237;52.438;13.240;2023-05-10T00:01:05;100766.31;;;12.42;54.66
75646;BME280;64237;52.438;13.240;2023-05-10T00:03:30;100760.19;;;12.40;55.53
75646;BME280;64237;52.438;13.240;2023-05-10T00:05:56;100761.78;;;12.35;55.08
75646;BME280;64237;52.438;13.240;2023-05-10T00:08:22;100754.84;;;12.33;55.30
75646;BME280;64237;52.438;13.240;2023-05-10T00:10:47;100753.81;;;12.22;55.33
75646;BME280;64237;52.438;13.240;2023-05-10T00:13:13;100757.19;;;12.24;55.18
75646;BME280;64237;52.438;13.240;2023-05-10T00:15:38;100751.06;;;12.22;55.93
75646;BME280;64237;52.438;13.240;2023-05-10T00:18:05;100742.50;;;12.07;55.88
75646;BME280;64237;52.438;13.240;2023-05-10T00:20:30;100750.47;;;12.20;55.13
75646;BME280;64237;52.438;13.240;2023-05-10T00:22:56;100744.31;;;12.18;56.00
75646;BME280;64237;52.438;13.240;2023-05-10T00:25:21;100733.81;;;12.20;55.19
75646;BME280;64237;52.438;13.240;2023-05-10T00:27:47;100740.78;;;12.23;55.03
75646;BME280;64237;52.438;13.240;2023-05-10T00:30:12;100732.13;;;12.19;56.16
75646;BME280;64237;52.438;13.240;2023-05-10T00:32:38;100729.81;;;12.11;56.30
75646;BME280;64237;52.438;13.240;2023-05-10T00:35:04;100726.97;;;12.06;56.11
75646;BME280;64237;52.438;13.240;2023-05-10T00:37:29;100718.72;;;12.11;55.43
75646;BME280;64237;52.438;13.240;2023-05-10T00:39:55;100730.13;;;12.15;56.96
75646;BME280;64237;52.438;13.240;2023-05-10T00:42:20;100722.59;;;12.10;56.81
75646;BME280;64237;52.438;13.240;2023-05-10T00:44:45;100727.47;;;12.03;56.21
75646;BME280;64237;52.438;13.240;2023-05-10T00:47:11;100722.34;;;11.95;56.96
75646;BME280;64237;52.438;13.240;2023-05-10T00:49:37;100730.16;;;11.98;56.80
75646;BME280;64237;52.438;13.240;2023-05-10T00:52:03;100720.75;;;11.99;57.36
75646;BME280;64237;52.438;13.240;2023-05-10T00:54:28;100714.97;;;11.84;57.02
75646;BME280;64237;52.438;13.240;2023-05-10T00:56:54;100704.47;;;11.86;56.91
75646;BME280;64237;52.438;13.240;2023-05-10T00:59:22;100718.22;;;11.81;57.56
75646;BME280;64237;52.438;13.240;2023-05-10T01:01:47;100713.53;;;11.81;57.82
75646;BME280;64237;52.438;13.240;2023-05-10T01:04:13;100700.88;;;11.74;56.91
75646;BME280;64237;52.438;13.240;2023-05-10T01:06:42;100706.56;;;11.79;57.89
75646;BME280;64237;52.438;13.240;2023-05-10T01:09:08;100700.88;;;11.74;57.03
75646;BME280;64237;52.438;13.240;2023-05-10T01:11:35;100702.81;;;11.73;57.34
75646;BME280;64237;52.438;13.240;2023-05-10T01:14:02;100702.56;;;11.75;56.81
75646;BME280;64237;52.438;13.240;2023-05-10T01:16:29;100703.59;;;11.68;58.05
75646;BME280;64237;52.438;13.240;2023-05-10T01:18:57;100698.06;;;11.68;57.28
75646;BME280;64237;52.438;13.240;2023-05-10T01:21:40;100697.53;;;11.72;57.99
75646;BME280;64237;52.438;13.240;2023-05-10T01:35:16;100690.16;;;11.60;58.27
75646;BME280;64237;52.438;13.240;2023-05-10T01:37:58;100688.47;;;11.59;57.03
75646;BME280;64237;52.438;13.240;2023-05-10T01:41:32;100687.28;;;11.55;57.30
75646;BME280;64237;52.438;13.240;2023-05-10T01:43:30;100686.88;;;11.47;57.92
75646;BME280;64237;52.438;13.240;2023-05-10T01:46:09;100695.19;;;11.47;58.02
75646;BME280;64237;52.438;13.240;2023-05-10T01:48:41;100695.00;;;11.53;57.37
75646;BME280;64237;52.438;13.240;2023-05-10T01:51:16;100684.59;;;11.44;58.27
75646;BME280;64237;52.438;13.240;2023-05-10T01:53:46;100686.44;;;11.38;58.17
75646;BME280;64237;52.438;13.240;2023-05-10T01:56:13;100680.22;;;11.31;58.98
75646;BME280;64237;52.438;13.240;2023-05-10T01:58:40;100688.41;;;11.26;59.37
75646;BME280;64237;52.438;13.240;2023-05-10T02:01:09;100688.41;;;11.26;58.65
75646;BME280;64237;52.438;13.240;2023-05-10T02:03:36;100686.25;;;11.28;58.83
75646;BME280;64237;52.438;13.240;2023-05-10T02:06:05;100690.63;;;11.24;59.35
75646;BME280;64237;52.438;13.240;2023-05-10T02:08:31;100689.44;;;11.20;59.15
75646;BME280;64237;52.438;13.240;2023-05-10T02:10:59;100683.91;;;11.20;60.01
75646;BME280;64237;52.438;13.240;2023-05-10T02:13:26;100690.06;;;11.10;59.96
75646;BME280;64237;52.438;13.240;2023-05-10T02:15:53;100683.69;;;11.10;59.12
75646;BME280;64237;52.438;13.240;2023-05-10T02:18:19;100683.44;;;11.11;59.45
75646;BME280;64237;52.438;13.240;2023-05-10T02:20:47;100669.94;;;10.98;60.42
75646;BME280;64237;52.438;13.240;2023-05-10T02:23:13;100671.38;;;11.01;60.22
75646;BME280;64237;52.438;13.240;2023-05-10T02:25:42;100683.03;;;11.03;59.91
75646;BME280;64237;52.438;13.240;2023-05-10T02:28:08;100675.28;;;11.05;59.84
75646;BME280;64237;52.438;13.240;2023-05-10T02:30:36;100679.66;;;11.01;59.96
75646;BME280;64237;52.438;13.240;2023-05-10T02:33:04;100679.47;;;10.90;60.69
75646;BME280;64237;52.438;13.240;2023-05-10T02:35:30;100674.41;;;10.87;60.48
75646;BME280;64237;52.438;13.240;2023-05-10T02:37:59;100668.88;;;10.87;60.69
75646;BME280;64237;52.438;13.240;2023-05-10T02:40:25;100667.84;;;10.77;61.41
75646;BME280;64237;52.438;13.240;2023-05-10T02:42:54;100677.25;;;10.76;61.67
75646;BME280;64237;52.438;13.240;2023-05-10T02:45:22;100669.19;;;10.74;60.46
75646;BME280;64237;52.438;13.240;2023-05-10T02:47:48;100670.03;;;10.75;61.15
75646;BME280;64237;52.438;13.240;2023-05-10T02:50:14;100669.19;;;10.74;61.67
75646;BME280;64237;52.438;13.240;2023-05-10T02:52:43;100675.06;;;10.78;61.03
75646;BME280;64237;52.438;13.240;2023-05-10T02:55:11;100674.72;;;10.74;61.80
75646;BME280;64237;52.438;13.240;2023-05-10T02:57:42;100675.69;;;10.68;61.34
75646;BME280;64237;52.438;13.240;2023-05-10T03:00:08;100678.34;;;10.63;61.70
75646;BME280;64237;52.438;13.240;2023-05-10T03:02:34;100669.25;;;10.51;61.84
75646;BME280;64237;52.438;13.240;2023-05-10T03:04:59;100674.06;;;10.44;62.67
75646;BME280;64237;52.438;13.240;2023-05-10T03:07:24;100666.38;;;10.46;61.95
75646;BME280;64237;52.438;13.240;2023-05-10T03:09:50;100668.06;;;10.47;62.56
75646;BME280;64237;52.438;13.240;2023-05-10T03:12:31;100666.88;;;10.43;62.17
75646;BME280;64237;52.438;13.240;2023-05-10T03:20:22;100675.06;;;10.38;63.77
75646;BME280;64237;52.438;13.240;2023-05-10T03:22:52;100660.16;;;10.39;63.24
75646;BME280;64237;52.438;13.240;2023-05-10T03:25:20;100655.72;;;10.38;62.92
75646;BME280;64237;52.438;13.240;2023-05-10T03:27:47;100645.03;;;10.29;62.68
75646;BME280;64237;52.438;13.240;2023-05-10T03:30:13;100663.28;;;10.30;64.21
75646;BME280;64237;52.438;13.240;2023-05-10T03:32:40;100654.41;;;10.28;64.06
75646;BME280;64237;52.438;13.240;2023-05-10T03:35:10;100659.22;;;10.21;64.08
75646;BME280;64237;52.438;13.240;2023-05-10T03:37:37;100667.63;;;10.26;63.57
75646;BME280;64237;52.438;13.240;2023-05-10T03:40:03;100651.53;;;10.23;63.75
75646;BME280;64237;52.438;13.240;2023-05-10T03:42:28;100658.47;;;10.38;62.54
75646;BME280;64237;52.438;13.240;2023-05-10T03:44:54;100650.44;;;10.24;63.16
75646;BME280;64237;52.438;13.240;2023-05-10T03:47:19;100657.06;;;10.23;63.47
75646;BME280;64237;52.438;13.240;2023-05-10T03:49:45;100663.19;;;10.25;63.88
75646;BME280;64237;52.438;13.240;2023-05-10T03:52:10;100640.22;;;10.13;62.78
75646;BME280;64237;52.438;13.240;2023-05-10T03:54:36;100661.38;;;10.19;63.92
75646;BME280;64237;52.438;13.240;2023-05-10T03:57:01;100656.56;;;10.26;63.70
75646;BME280;64237;52.438;13.240;2023-05-10T03:59:28;100649.72;;;10.29;63.23
75646;BME280;64237;52.438;13.240;2023-05-10T04:01:53;100657.78;;;10.30;63.40
75646;BME280;64237;52.438;13.240;2023-05-10T04:04:18;100653.91;;;10.32;62.99
75646;BME280;64237;52.438;13.240;2023-05-10T04:06:45;100662.22;;;10.32;63.01
75646;BME280;64237;52.438;13.240;2023-05-10T04:09:11;100654.75;;;10.32;62.96
75646;BME280;64237;52.438;13.240;2023-05-10T04:11:36;100661.13;;;10.33;65.28
75646;BME280;64237;52.438;13.240;2023-05-10T04:14:01;100649.84;;;10.34;63.50
75646;BME280;64237;52.438;13.240;2023-05-10T04:16:27;100650.75;;;10.40;63.15
75646;BME280;64237;52.438;13.240;2023-05-10T04:18:52;100652.94;;;10.38;62.75
75646;BME280;64237;52.438;13.240;2023-05-10T04:21:18;100646.06;;;10.40;62.24
75646;BME280;64237;52.438;13.240;2023-05-10T04:23:43;100651.94;;;10.44;62.47
75646;BME280;64237;52.438;13.240;2023-05-10T04:26:08;100649.66;;;10.41;63.18
75646;BME280;64237;52.438;13.240;2023-05-10T04:28:34;100658.31;;;10.44;63.08
75646;BME280;64237;52.438;13.240;2023-05-10T04:31:07;100644.59;;;10.49;61.78
75646;BME280;64237;52.438;13.240;2023-05-10T04:33:32;100644.72;;;10.54;62.82
75646;BME280;64237;52.438;13.240;2023-05-10T04:35:58;100641.72;;;10.56;61.53
75646;BME280;64237;52.438;13.240;2023-05-10T04:38:23;100644.00;;;10.59;61.50
75646;BME280;64237;52.438;13.240;2023-05-10T04:40:49;100640.97;;;10.60;61.96
75646;BME280;64237;52.438;13.240;2023-05-10T04:43:14;100636.97;;;10.68;61.56
75646;BME280;64237;52.438;13.240;2023-05-10T04:45:39;100635.13;;;10.74;61.04
75646;BME280;64237;52.438;13.240;2023-05-10T04:48:05;100641.38;;;10.81;61.68
75646;BME280;64237;52.438;13.240;2023-05-10T04:50:30;100632.31;;;10.85;61.85
75646;BME280;64237;52.438;13.240;2023-05-10T04:52:56;100624.59;;;10.87;61.60
75646;BME280;64237;52.438;13.240;2023-05-10T04:55:22;100633.97;;;10.86;62.39
75646;BME280;64237;52.438;13.240;2023-05-10T04:57:47;100627.13;;;10.89;62.01
75646;BME280;64237;52.438;13.240;2023-05-10T05:00:13;100639.72;;;10.96;61.34
75646;BME280;64237;52.438;13.240;2023-05-10T05:02:42;100634.69;;;10.93;61.48
75646;BME280;64237;52.438;13.240;2023-05-10T05:05:07;100632.59;;;11.01;61.27
75646;BME280;64237;52.438;13.240;2023-05-10T05:07:33;100641.06;;;11.11;60.62
75646;BME280;64237;52.438;13.240;2023-05-10T05:09:58;100635.41;;;11.17;59.29
75646;BME280;64237;52.438;13.240;2023-05-10T05:12:23;100637.22;;;11.28;60.13
75646;BME280;64237;52.438;13.240;2023-05-10T05:14:49;100632.53;;;11.29;59.27
75646;BME280;64237;52.438;13.240;2023-05-10T05:17:14;100631.88;;;11.39;60.04
75646;BME280;64237;52.438;13.240;2023-05-10T05:19:39;100633.81;;;11.38;60.05
75646;BME280;64237;52.438;13.240;2023-05-10T05:22:06;100626.00;;;11.52;58.70
75646;BME280;64237;52.438;13.240;2023-05-10T05:24:36;100632.47;;;11.57;59.54
75646;BME280;64237;52.438;13.240;2023-05-10T05:27:03;100621.38;;;11.57;59.25
75646;BME280;64237;52.438;13.240;2023-05-10T05:29:28;100624.16;;;12.34;60.57
75646;BME280;64237;52.438;13.240;2023-05-10T05:31:54;100628.88;;;14.73;62.21
75646;BME280;64237;52.438;13.240;2023-05-10T05:34:19;100626.81;;;15.36;57.53
75646;BME280;64237;52.438;13.240;2023-05-10T05:36:45;100622.88;;;15.88;52.59
75646;BME280;64237;52.438;13.240;2023-05-10T05:39:11;100619.25;;;15.41;53.98
75646;BME280;64237;52.438;13.240;2023-05-10T05:41:36;100618.97;;;15.38;52.52
75646;BME280;64237;52.438;13.240;2023-05-10T05:44:01;100609.06;;;13.97;51.34
75646;BME280;64237;52.438;13.240;2023-05-10T05:46:27;100622.47;;;13.31;53.24
75646;BME280;64237;52.438;13.240;2023-05-10T05:48:52;100617.75;;;13.04;54.27
75646;BME280;64237;52.438;13.240;2023-05-10T05:51:17;100626.44;;;12.86;55.35
75646;BME280;64237;52.438;13.240;2023-05-10T05:53:43;100625.28;;;12.82;55.53
75646;BME280;64237;52.438;13.240;2023-05-10T05:56:08;100619.16;;;12.80;55.27
75646;BME280;64237;52.438;13.240;2023-05-10T05:58:34;100615.41;;;12.91;55.95
75646;BME280;64237;52.438;13.240;2023-05-10T06:01:00;100632.41;;;13.00;54.18
75646;BME280;64237;52.438;13.240;2023-05-10T06:03:26;100612.44;;;13.03;54.84
75646;BME280;64237;52.438;13.240;2023-05-10T06:05:51;100618.91;;;13.09;56.16
75646;BME280;64237;52.438;13.240;2023-05-10T06:08:17;100618.47;;;13.22;54.49
75646;BME280;64237;52.438;13.240;2023-05-10T06:10:42;100627.44;;;13.29;54.15
75646;BME280;64237;52.438;13.240;2023-05-10T06:13:07;100620.56;;;13.36;54.79
75646;BME280;64237;52.438;13.240;2023-05-10T06:15:33;100620.38;;;13.48;53.47
75646;BME280;64237;52.438;13.240;2023-05-10T06:17:58;100617.06;;;13.51;55.07
75646;BME280;64237;52.438;13.240;2023-05-10T06:20:24;100624.13;;;13.64;53.19
75646;BME280;64237;52.438;13.240;2023-05-10T06:22:49;100622.00;;;13.76;52.94
75646;BME280;64237;52.438;13.240;2023-05-10T06:25:14;100622.03;;;13.81;53.34
75646;BME280;64237;52.438;13.240;2023-05-10T06:27:42;100625.13;;;13.90;52.03
75646;BME280;64237;52.438;13.240;2023-05-10T06:30:09;100605.66;;;13.85;51.87
75646;BME280;64237;52.438;13.240;2023-05-10T06:32:35;100609.06;;;13.97;52.20
75646;BME280;64237;52.438;13.240;2023-05-10T06:35:00;100621.41;;;14.16;51.87
75646;BME280;64237;52.438;13.240;2023-05-10T06:37:26;100624.19;;;14.16;51.35
75646;BME280;64237;52.438;13.240;2023-05-10T06:39:51;100620.91;;;14.24;51.75
75646;BME280;64237;52.438;13.240;2023-05-10T06:42:16;100625.44;;;14.40;51.40
75646;BME280;64237;52.438;13.240;2023-05-10T06:44:42;100618.25;;;14.50;51.28
75646;BME280;64237;52.438;13.240;2023-05-10T06:47:08;100606.53;;;14.43;51.68
75646;BME280;64237;52.438;13.240;2023-05-10T06:49:34;100624.38;;;14.47;51.38
75646;BME280;64237;52.438;13.240;2023-05-10T06:51:59;100612.13;;;14.48;50.09
75646;BME280;64237;52.438;13.240;2023-05-10T06:54:25;100607.44;;;14.63;52.17
75646;BME280;64237;52.438;13.240;2023-05-10T06:56:50;100619.72;;;14.67;50.30
75646;BME280;64237;52.438;13.240;2023-05-10T06:59:15;100611.94;;;14.80;51.31
75646;BME280;64237;52.438;13.240;2023-05-10T07:01:42;100622.25;;;14.94;50.67
75646;BME280;64237;52.438;13.240;2023-05-10T07:04:09;100624.53;;;15.07;49.97
75646;BME280;64237;52.438;13.240;2023-05-10T07:06:34;100621.75;;;15.13;49.74
75646;BME280;64237;52.438;13.240;2023-05-10T07:09:00;100608.66;;;15.18;49.29
75646;BME280;64237;52.438;13.240;2023-05-10T07:11:26;100612.28;;;15.24;49.49
75646;BME280;64237;52.438;13.240;2023-05-10T07:13:51;100611.16;;;15.25;50.23
75646;BME280;64237;52.438;13.240;2023-05-10T07:16:17;100601.13;;;15.44;48.95
75646;BME280;64237;52.438;13.240;2023-05-10T07:18:42;100604.53;;;15.56;49.35
75646;BME280;64237;52.438;13.240;2023-05-10T07:21:07;100594.47;;;15.60;48.69
75646;BME280;64237;52.438;13.240;2023-05-10T07:23:33;100603.38;;;15.62;47.67
75646;BME280;64237;52.438;13.240;2023-05-10T07:25:59;100589.44;;;15.67;49.34
75646;BME280;64237;52.438;13.240;2023-05-10T07:28:24;100596.38;;;15.90;47.57
75646;BME280;64237;52.438;13.240;2023-05-10T07:30:50;100592.97;;;16.03;47.74
75646;BME280;64237;52.438;13.240;2023-05-10T07:33:15;100595.50;;;16.05;46.70
75646;BME280;64237;52.438;13.240;2023-05-10T07:35:41;100606.34;;;16.17;47.18
75646;BME280;64237;52.438;13.240;2023-05-10T07:38:07;100607.75;;;16.14;46.25
75646;BME280;64237;52.438;13.240;2023-05-10T07:40:32;100594.06;;;16.18;47.68
75646;BME280;64237;52.438;13.240;2023-05-10T07:42:58;100607.69;;;16.39;48.06
75646;BME280;64237;52.438;13.240;2023-05-10T07:45:24;100606.00;;;16.43;49.48
75646;BME280;64237;52.438;13.240;2023-05-10T07:47:50;100599.78;;;16.52;46.74
75646;BME280;64237;52.438;13.240;2023-05-10T07:50:15;100603.13;;;16.64;46.03
75646;BME280;64237;52.438;13.240;2023-05-10T07:52:41;100611.44;;;16.74;46.81
75646;BME280;64237;52.438;13.240;2023-05-10T07:55:07;100609.22;;;16.71;46.32
75646;BME280;64237;52.438;13.240;2023-05-10T07:57:33;100603.63;;;16.71;46.16
75646;BME280;64237;52.438;13.240;2023-05-10T07:59:59;100601.38;;;16.73;46.63
75646;BME280;64237;52.438;13.240;2023-05-10T08:02:24;100603.31;;;16.77;45.83
75646;BME280;64237;52.438;13.240;2023-05-10T08:04:50;100609.88;;;17.02;47.30
75646;BME280;64237;52.438;13.240;2023-05-10T08:07:15;100603.16;;;17.08;45.45
75646;BME280;64237;52.438;13.240;2023-05-10T08:09:41;100603.88;;;17.19;45.48
75646;BME280;64237;52.438;13.240;2023-05-10T08:12:06;100604.88;;;17.33;45.86
75646;BME280;64237;52.438;13.240;2023-05-10T08:14:32;100596.22;;;17.34;45.46
75646;BME280;64237;52.438;13.240;2023-05-10T08:16:57;100612.75;;;17.31;44.93
75646;BME280;64237;52.438;13.240;2023-05-10T08:19:23;100594.34;;;17.25;46.51
75646;BME280;64237;52.438;13.240;2023-05-10T08:21:49;100607.59;;;17.48;46.37
75646;BME280;64237;52.438;13.240;2023-05-10T08:24:14;100609.25;;;17.49;46.27
75646;BME280;64237;52.438;13.240;2023-05-10T08:26:40;100609.19;;;17.54;46.15
75646;BME280;64237;52.438;13.240;2023-05-10T08:29:05;100601.88;;;17.58;45.46
75646;BME280;64237;52.438;13.240;2023-05-10T08:31:31;100610.53;;;17.67;45.80
75646;BME280;64237;52.438;13.240;2023-05-10T08:33:56;100604.94;;;17.67;45.54
75646;BME280;64237;52.438;13.240;2023-05-10T08:36:22;100619.81;;;17.91;44.75
75646;BME280;64237;52.438;13.240;2023-05-10T08:38:52;100622.16;;;18.08;44.52
75646;BME280;64237;52.438;13.240;2023-05-10T08:41:20;100613.69;;;18.13;43.91
75646;BME280;64237;52.438;13.240;2023-05-10T08:43:46;100621.56;;;18.11;44.00
75646;BME280;64237;52.438;13.240;2023-05-10T08:46:16;100610.59;;;18.14;45.42
75646;BME280;64237;52.438;13.240;2023-05-10T08:48:44;100618.72;;;18.16;43.52
75646;BME280;64237;52.438;13.240;2023-05-10T08:51:13;100621.03;;;18.33;44.77
75646;BME280;64237;52.438;13.240;2023-05-10T08:53:39;100624.78;;;18.47;43.58
75646;BME280;64237;52.438;13.240;2023-05-10T08:56:05;100625.44;;;18.63;43.79
75646;BME280;64237;52.438;13.240;2023-05-10T08:58:31;100628.22;;;18.63;42.57
75646;BME280;64237;52.438;13.240;2023-05-10T09:00:57;100631.69;;;18.55;41.89
75646;BME280;64237;52.438;13.240;2023-05-10T09:03:22;100616.81;;;18.59;42.12
75646;BME280;64237;52.438;13.240;2023-05-10T09:05:48;100634.19;;;18.80;42.52
75646;BME280;64237;52.438;13.240;2023-05-10T09:08:15;100617.97;;;18.77;41.49
75646;BME280;64237;52.438;13.240;2023-05-10T09:10:43;100626.31;;;18.82;42.36
75646;BME280;64237;52.438;13.240;2023-05-10T09:13:10;100629.28;;;18.91;41.03
75646;BME280;64237;52.438;13.240;2023-05-10T09:15:36;100627.00;;;18.93;41.54
75646;BME280;64237;52.438;13.240;2023-05-10T09:18:02;100638.56;;;18.86;41.01
75646;BME280;64237;52.438;13.240;2023-05-10T09:20:27;100622.75;;;18.95;42.58
75646;BME280;64237;52.438;13.240;2023-05-10T09:22:53;100623.59;;;19.14;41.07
75646;BME280;64237;52.438;13.240;2023-05-10T09:25:18;100616.59;;;19.31;41.66
75646;BME280;64237;52.438;13.240;2023-05-10T09:27:46;100630.25;;;19.56;40.91
75646;BME280;64237;52.438;13.240;2023-05-10T09:30:17;100630.25;;;19.56;40.91
75646;BME280;64237;52.438;13.240;2023-05-10T09:32:44;100626.22;;;19.62;41.58
75646;BME280;64237;52.438;13.240;2023-05-10T09:35:12;100619.22;;;19.78;39.80
75646;BME280;64237;52.438;13.240;2023-05-10T09:37:42;100622.91;;;20.20;42.78
75646;BME280;64237;52.438;13.240;2023-05-10T09:40:11;100632.53;;;20.33;39.48
75646;BME280;64237;52.438;13.240;2023-05-10T09:42:38;100630.59;;;20.01;39.75
75646;BME280;64237;52.438;13.240;2023-05-10T09:45:04;100614.44;;;20.52;42.13
75646;BME280;64237;52.438;13.240;2023-05-10T09:47:33;100630.47;;;20.66;39.90
75646;BME280;64237;52.438;13.240;2023-05-10T09:50:00;100628.59;;;20.47;39.53
75646;BME280;64237;52.438;13.240;2023-05-10T09:52:50;100629.22;;;20.44;41.36
75646;BME280;64237;52.438;13.240;2023-05-10T09:55:16;100625.78;;;20.75;38.40
75646;BME280;64237;52.438;13.240;2023-05-10T09:57:44;100628.50;;;21.02;39.25
75646;BME280;64237;52.438;13.240;2023-05-10T10:00:18;100632.44;;;21.29;38.88
75646;BME280;64237;52.438;13.240;2023-05-10T10:02:46;100627.75;;;21.24;37.19
75646;BME280;64237;52.438;13.240;2023-05-10T10:05:13;100631.69;;;21.37;37.94
75646;BME280;64237;52.438;13.240;2023-05-10T10:07:38;100620.31;;;21.42;38.46
75646;BME280;64237;52.438;13.240;2023-05-10T10:10:05;100624.13;;;21.68;38.31
75646;BME280;64237;52.438;13.240;2023-05-10T10:12:30;100617.66;;;21.90;38.66
75646;BME280;64237;52.438;13.240;2023-05-10T10:14:56;100623.72;;;22.28;37.66
75646;BME280;64237;52.438;13.240;2023-05-10T10:17:25;100629.72;;;22.44;36.83
75646;BME280;64237;52.438;13.240;2023-05-10T10:19:52;100627.25;;;22.42;36.46
75646;BME280;64237;52.438;13.240;2023-05-10T10:22:18;100622.91;;;22.36;36.37
75646;BME280;64237;52.438;13.240;2023-05-10T10:24:44;100623.53;;;22.33;35.36
75646;BME280;64237;52.438;13.240;2023-05-10T10:27:23;100613.50;;;22.58;35.92
75646;BME280;64237;52.438;13.240;2023-05-10T10:30:06;100610.66;;;22.89;34.75
75646;BME280;64237;52.438;13.240;2023-05-10T10:35:31;100615.16;;;23.07;35.89
75646;BME280;64237;52.438;13.240;2023-05-10T10:37:58;100613.50;;;23.06;36.02
75646;BME280;64237;52.438;13.240;2023-05-10T10:40:28;100616.00;;;23.42;35.51
75646;BME280;64237;52.438;13.240;2023-05-10T10:42:55;100615.81;;;23.39;33.97
75646;BME280;64237;52.438;13.240;2023-05-10T10:45:21;100618.75;;;22.82;34.87
75646;BME280;64237;52.438;13.240;2023-05-10T10:47:47;100630.44;;;23.06;34.58
75646;BME280;64237;52.438;13.240;2023-05-10T10:50:13;100604.16;;;22.97;35.42
75646;BME280;64237;52.438;13.240;2023-05-10T10:52:43;100621.97;;;23.15;33.06
75646;BME280;64237;52.438;13.240;2023-05-10T10:55:19;100614.16;;;23.20;35.40
75646;BME280;64237;52.438;13.240;2023-05-10T11:02:46;100602.03;;;23.80;34.73
75646;BME280;64237;52.438;13.240;2023-05-10T11:07:55;100598.22;;;23.42;33.17
75646;BME280;64237;52.438;13.240;2023-05-10T11:10:22;100603.38;;;23.74;33.88
75646;BME280;64237;52.438;13.240;2023-05-10T11:15:17;100610.09;;;24.08;34.88
75646;BME280;64237;52.438;13.240;2023-05-10T11:17:42;100605.25;;;24.08;33.74
75646;BME280;64237;52.438;13.240;2023-05-10T11:20:08;100606.63;;;24.02;32.73
75646;BME280;64237;52.438;13.240;2023-05-10T11:22:55;100598.25;;;24.61;32.43
75646;BME280;64237;52.438;13.240;2023-05-10T11:25:26;100601.09;;;24.61;30.13
75646;BME280;64237;52.438;13.240;2023-05-10T11:27:52;100604.75;;;24.62;31.26
75646;BME280;64237;52.438;13.240;2023-05-10T11:30:17;100609.44;;;24.87;32.77
75646;BME280;64237;52.438;13.240;2023-05-10T11:32:43;100590.78;;;24.86;29.83
75646;BME280;64237;52.438;13.240;2023-05-10T11:35:10;100603.81;;;25.28;32.38
75646;BME280;64237;52.438;13.240;2023-05-10T11:37:37;100603.19;;;25.02;30.74
75646;BME280;64237;52.438;13.240;2023-05-10T11:40:07;100605.03;;;24.98;30.83
75646;BME280;64237;52.438;13.240;2023-05-10T11:42:35;100606.75;;;24.61;30.53
75646;BME280;64237;52.438;13.240;2023-05-10T11:45:02;100601.88;;;24.91;30.29
75646;BME280;64237;52.438;13.240;2023-05-10T11:47:28;100600.31;;;25.32;30.84
75646;BME280;64237;52.438;13.240;2023-05-10T11:49:53;100594.19;;;24.71;30.87
75646;BME280;64237;52.438;13.240;2023-05-10T11:52:19;100610.03;;;25.01;29.82
75646;BME280;64237;52.438;13.240;2023-05-10T11:54:51;100595.09;;;25.34;32.24
75646;BME280;64237;52.438;13.240;2023-05-10T11:57:18;100592.97;;;25.31;30.29
75646;BME280;64237;52.438;13.240;2023-05-10T11:59:43;100600.69;;;25.21;29.35
75646;BME280;64237;52.438;13.240;2023-05-10T12:02:10;100588.19;;;25.02;28.76
75646;BME280;64237;52.438;13.240;2023-05-10T12:04:35;100602.69;;;25.00;30.72
75646;BME280;64237;52.438;13.240;2023-05-10T12:07:01;100604.88;;;24.94;29.39
75646;BME280;64237;52.438;13.240;2023-05-10T12:09:26;100605.88;;;25.19;30.66
75646;BME280;64237;52.438;13.240;2023-05-10T12:11:55;100603.94;;;24.52;29.04
75646;BME280;64237;52.438;13.240;2023-05-10T12:14:22;100604.78;;;25.33;31.35
75646;BME280;64237;52.438;13.240;2023-05-10T12:16:47;100601.03;;;25.41;29.18
75646;BME280;64237;52.438;13.240;2023-05-10T12:19:18;100601.34;;;25.60;29.18
75646;BME280;64237;52.438;13.240;2023-05-10T12:21:45;100601.56;;;25.55;28.83
75646;BME280;64237;52.438;13.240;2023-05-10T12:24:11;100603.25;;;25.14;31.16
75646;BME280;64237;52.438;13.240;2023-05-10T12:26:36;100603.59;;;25.54;30.43
75646;BME280;64237;52.438;13.240;2023-05-10T12:29:15;100608.38;;;25.63;28.93
75646;BME280;64237;52.438;13.240;2023-05-10T12:31:55;100607.72;;;25.57;28.23
75646;BME280;64237;52.438;13.240;2023-05-10T12:34:33;100613.97;;;25.71;29.45
75646;BME280;64237;52.438;13.240;2023-05-10T12:36:59;100616.13;;;25.33;28.75
75646;BME280;64237;52.438;13.240;2023-05-10T12:39:25;100612.66;;;25.06;29.85
75646;BME280;64237;52.438;13.240;2023-05-10T12:41:51;100616.31;;;25.07;29.63
75646;BME280;64237;52.438;13.240;2023-05-10T12:44:17;100622.22;;;24.64;29.95
75646;BME280;64237;52.438;13.240;2023-05-10T12:46:42;100617.81;;;24.75;30.70
75646;BME280;64237;52.438;13.240;2023-05-10T12:49:08;100617.31;;;24.43;31.73
75646;BME280;64237;52.438;13.240;2023-05-10T12:51:33;100617.44;;;24.85;33.24
75646;BME280;64237;52.438;13.240;2023-05-10T12:53:58;100611.47;;;24.78;31.63
75646;BME280;64237;52.438;13.240;2023-05-10T12:56:24;100623.84;;;24.35;31.86
75646;BME280;64237;52.438;13.240;2023-05-10T12:58:49;100614.16;;;24.45;30.06
75646;BME280;64237;52.438;13.240;2023-05-10T13:01:15;100622.34;;;24.38;31.19
75646;BME280;64237;52.438;13.240;2023-05-10T13:03:40;100604.25;;;24.59;31.02
75646;BME280;64237;52.438;13.240;2023-05-10T13:06:06;100612.09;;;24.54;29.22
75646;BME280;64237;52.438;13.240;2023-05-10T13:08:31;100614.19;;;24.36;28.46